Charlotte Roush — WDE5112 — position and weather

sailwx.info

Track history (hours):
 
Tides and Currents Weather Stations Pressure Air Temp Water Temp Dewpoint Dewpoint Depression Visibility Wind Speed Wind Dir Waves Ship Positions

Charlotte Roush

Owner: AEP River Operations LLC, Chesterfield, MO. More information available from US FCC via Universal Licensing System and Coast Guard Vessel Documentation Center.

Last reported at 2015-Jun-28 23:23 UTC. Time now 2015-Jun-30 08:17 UTC.
Position N 29°56' W 089°59'.

Length 35 m; draft 3 m.

Type: Towing. MMSI: 367362230.

Date/timePositionNaut miles runAvg speedWind from/ knotsBaromVisibWave heightAir tempDewpointWater temp
2015-Jun-28 23:23N 29°56' W 089°59'8 4.1
2015-Jun-28 21:29N 29°56' W 090°08'3 0.2
2015-Jun-27 23:17N 29°55' W 090°12'3 4.3
2015-Jun-27 22:30N 29°57' W 090°08'4 3.8
2015-Jun-27 21:31N 29°55' W 090°04'3 3.4
2015-Jun-27 20:31N 29°56' W 090°01'0 0.0
2015-Jun-27 19:26N 29°56' W 090°01'1 0.7
2015-Jun-27 18:17N 29°57' W 090°01'6 5.5
2015-Jun-27 17:09N 29°56' W 090°09'2 0.0
2015-Jun-26 09:26N 29°55' W 090°08'4 4.9
2015-Jun-26 08:32N 29°57' W 090°04'2 2.4
2015-Jun-26 07:33N 29°57' W 090°01'0 0.0
2015-Jun-26 06:33N 29°57' W 090°01'2 1.8
2015-Jun-26 05:33N 29°56' W 089°59'4 3.1
2015-Jun-26 04:16N 29°52' W 089°56'6 5.8
2015-Jun-26 03:16N 29°48' W 090°00'10 1.7
2015-Jun-25 21:29N 29°57' W 090°02'5 4.6
2015-Jun-25 20:20N 29°57' W 090°08'1 0.0
2015-Jun-24 15:13N 29°56' W 090°08'3 4.2
2015-Jun-24 14:23N 29°55' W 090°05'3 3.4
2015-Jun-24 13:32N 29°57' W 090°02'0 0.3
2015-Jun-24 12:33N 29°57' W 090°02'1 1.3
2015-Jun-24 11:28N 29°57' W 090°01'0 0.1
2015-Jun-24 10:29N 29°57' W 090°01'0 0.0
2015-Jun-24 09:33N 29°57' W 090°01'5 4.7
2015-Jun-24 08:32N 29°55' W 090°06'3 2.7
2015-Jun-24 07:32N 29°56' W 090°08'1 1.3
2015-Jun-24 06:30N 29°57' W 090°09'7 6.6
2015-Jun-24 05:22N 29°57' W 090°18'3 2.5
2015-Jun-24 04:14N 29°56' W 090°21'3 4.3
2015-Jun-24 03:33N 29°58' W 090°24'7 6.9
2015-Jun-24 02:28N 30°03' W 090°30'30 0.9
2015-Jun-22 18:17N 29°55' W 089°57'3 4.7
2015-Jun-22 17:32N 29°56' W 090°01'0 0.0
2015-Jun-22 16:31N 29°56' W 090°01'3 2.5
2015-Jun-22 15:31N 29°57' W 090°03'5 4.4
2015-Jun-22 14:25N 29°56' W 090°08'15 5.0
2015-Jun-22 11:30N 29°59' W 090°25'21 1.0
2015-Jun-21 14:30N 29°57' W 090°01'6 0.5
2015-Jun-21 01:12N 29°54' W 089°54'5 8.0
2015-Jun-21 00:33N 29°56' W 089°60'7 6.5
2015-Jun-20 23:28N 29°55' W 090°08'3 0.1
2015-Jun-19 04:22N 29°57' W 090°10'2 2.6
2015-Jun-19 03:32N 29°55' W 090°08'4 4.2
2015-Jun-19 02:32N 29°56' W 090°04'2 2.5
2015-Jun-19 01:31N 29°57' W 090°01'0 0.1
2015-Jun-19 00:33N 29°57' W 090°01'0 0.0
2015-Jun-18 23:28N 29°57' W 090°01'  
Track history (hours):
 
Tides and Currents Weather Stations Pressure Air Temp Water Temp Dewpoint Dewpoint Depression Visibility Wind Speed Wind Dir Waves Ship Positions

Charlotte Roush

Owner: AEP River Operations LLC, Chesterfield, MO. More information available from US FCC via Universal Licensing System and Coast Guard Vessel Documentation Center.

Last reported at 2015-Jun-28 23:23 UTC. Time now 2015-Jun-30 08:17 UTC.
Position N 29°56' W 089°59'.

Length 35 m; draft 3 m.

Type: Towing. MMSI: 367362230.

Date/timePositionNaut miles runAvg speedWind from/ knotsBaromVisibWave heightAir tempDewpointWater temp
2015-Jun-28 23:23N 29°56' W 089°59'8 4.1
2015-Jun-28 21:29N 29°56' W 090°08'3 0.2
2015-Jun-27 23:17N 29°55' W 090°12'3 4.3
2015-Jun-27 22:30N 29°57' W 090°08'4 3.8
2015-Jun-27 21:31N 29°55' W 090°04'3 3.4
2015-Jun-27 20:31N 29°56' W 090°01'0 0.0
2015-Jun-27 19:26N 29°56' W 090°01'1 0.7
2015-Jun-27 18:17N 29°57' W 090°01'6 5.5
2015-Jun-27 17:09N 29°56' W 090°09'2 0.0
2015-Jun-26 09:26N 29°55' W 090°08'4 4.9
2015-Jun-26 08:32N 29°57' W 090°04'2 2.4
2015-Jun-26 07:33N 29°57' W 090°01'0 0.0
2015-Jun-26 06:33N 29°57' W 090°01'2 1.8
2015-Jun-26 05:33N 29°56' W 089°59'4 3.1
2015-Jun-26 04:16N 29°52' W 089°56'6 5.8
2015-Jun-26 03:16N 29°48' W 090°00'10 1.7
2015-Jun-25 21:29N 29°57' W 090°02'5 4.6
2015-Jun-25 20:20N 29°57' W 090°08'1 0.0
2015-Jun-24 15:13N 29°56' W 090°08'3 4.2
2015-Jun-24 14:23N 29°55' W 090°05'3 3.4
2015-Jun-24 13:32N 29°57' W 090°02'0 0.3
2015-Jun-24 12:33N 29°57' W 090°02'1 1.3
2015-Jun-24 11:28N 29°57' W 090°01'0 0.1
2015-Jun-24 10:29N 29°57' W 090°01'0 0.0
2015-Jun-24 09:33N 29°57' W 090°01'5 4.7
2015-Jun-24 08:32N 29°55' W 090°06'3 2.7
2015-Jun-24 07:32N 29°56' W 090°08'1 1.3
2015-Jun-24 06:30N 29°57' W 090°09'7 6.6
2015-Jun-24 05:22N 29°57' W 090°18'3 2.5
2015-Jun-24 04:14N 29°56' W 090°21'3 4.3
2015-Jun-24 03:33N 29°58' W 090°24'7 6.9
2015-Jun-24 02:28N 30°03' W 090°30'30 0.9
2015-Jun-22 18:17N 29°55' W 089°57'3 4.7
2015-Jun-22 17:32N 29°56' W 090°01'0 0.0
2015-Jun-22 16:31N 29°56' W 090°01'3 2.5
2015-Jun-22 15:31N 29°57' W 090°03'5 4.4
2015-Jun-22 14:25N 29°56' W 090°08'15 5.0
2015-Jun-22 11:30N 29°59' W 090°25'21 1.0
2015-Jun-21 14:30N 29°57' W 090°01'6 0.5
2015-Jun-21 01:12N 29°54' W 089°54'5 8.0
2015-Jun-21 00:33N 29°56' W 089°60'7 6.5
2015-Jun-20 23:28N 29°55' W 090°08'3 0.1
2015-Jun-19 04:22N 29°57' W 090°10'2 2.6
2015-Jun-19 03:32N 29°55' W 090°08'4 4.2
2015-Jun-19 02:32N 29°56' W 090°04'2 2.5
2015-Jun-19 01:31N 29°57' W 090°01'0 0.1
2015-Jun-19 00:33N 29°57' W 090°01'0 0.0
2015-Jun-18 23:28N 29°57' W 090°01'  

Dump ship's entire track history